sensor_id;sensor_type;location;lat;lon;timestamp;pressure;altitude;pressure_sealevel;temperature;humidity
9855;BME280;4966;48.112;9.282;2022-12-11T00:01:57;93884.81;;;-0.40;74.52
9855;BME280;4966;48.112;9.282;2022-12-11T00:04:22;93877.50;;;-0.34;74.43
9855;BME280;4966;48.112;9.282;2022-12-11T00:06:48;93875.13;;;-0.55;75.03
9855;BME280;4966;48.112;9.282;2022-12-11T00:09:16;93872.00;;;-0.62;75.49
9855;BME280;4966;48.112;9.282;2022-12-11T00:11:41;93868.81;;;-0.64;75.49
9855;BME280;4966;48.112;9.282;2022-12-11T00:14:07;93881.06;;;-0.82;75.05
9855;BME280;4966;48.112;9.282;2022-12-11T00:16:32;93874.13;;;-0.83;74.77
9855;BME280;4966;48.112;9.282;2022-12-11T00:18:57;93876.50;;;-1.00;74.70
9855;BME280;4966;48.112;9.282;2022-12-11T00:21:23;93868.06;;;-1.13;75.43
9855;BME280;4966;48.112;9.282;2022-12-11T00:23:48;93858.38;;;-1.27;75.80
9855;BME280;4966;48.112;9.282;2022-12-11T00:26:14;93869.81;;;-1.27;75.41
9855;BME280;4966;48.112;9.282;2022-12-11T00:28:40;93867.16;;;-1.27;75.44
9855;BME280;4966;48.112;9.282;2022-12-11T00:31:08;93866.75;;;-1.39;75.71
9855;BME280;4966;48.112;9.282;2022-12-11T00:33:34;93867.31;;;-1.42;75.66
9855;BME280;4966;48.112;9.282;2022-12-11T00:35:59;93867.00;;;-1.36;74.11
9855;BME280;4966;48.112;9.282;2022-12-11T00:38:25;93879.31;;;-1.69;74.91
9855;BME280;4966;48.112;9.282;2022-12-11T00:40:50;93871.16;;;-1.83;75.30
9855;BME280;4966;48.112;9.282;2022-12-11T00:43:16;93869.84;;;-2.15;75.79
9855;BME280;4966;48.112;9.282;2022-12-11T00:45:43;93871.72;;;-2.15;75.26
9855;BME280;4966;48.112;9.282;2022-12-11T00:48:10;93873.53;;;-2.50;75.96
9855;BME280;4966;48.112;9.282;2022-12-11T00:50:36;93867.16;;;-2.49;75.68
9855;BME280;4966;48.112;9.282;2022-12-11T00:53:03;93871.88;;;-2.41;74.97
9855;BME280;4966;48.112;9.282;2022-12-11T00:55:29;93869.97;;;-2.35;74.73
9855;BME280;4966;48.112;9.282;2022-12-11T00:57:55;93883.78;;;-2.72;75.06
9855;BME280;4966;48.112;9.282;2022-12-11T01:00:21;93886.34;;;-2.57;74.13
9855;BME280;4966;48.112;9.282;2022-12-11T01:02:47;93889.63;;;-2.70;72.82
9855;BME280;4966;48.112;9.282;2022-12-11T01:05:13;93889.25;;;-3.03;73.52
9855;BME280;4966;48.112;9.282;2022-12-11T01:07:39;93889.81;;;-3.16;74.16
9855;BME280;4966;48.112;9.282;2022-12-11T01:10:04;93901.78;;;-3.14;73.62
9855;BME280;4966;48.112;9.282;2022-12-11T01:12:56;93908.22;;;-3.35;73.61
9855;BME280;4966;48.112;9.282;2022-12-11T01:15:24;93919.44;;;-3.49;73.71
9855;BME280;4966;48.112;9.282;2022-12-11T01:17:50;93910.38;;;-3.37;73.79
9855;BME280;4966;48.112;9.282;2022-12-11T01:20:17;93913.31;;;-3.44;73.01
9855;BME280;4966;48.112;9.282;2022-12-11T01:22:42;93918.34;;;-3.48;74.37
9855;BME280;4966;48.112;9.282;2022-12-11T01:25:08;93914.97;;;-3.99;74.78
9855;BME280;4966;48.112;9.282;2022-12-11T01:27:34;93924.50;;;-4.14;75.20
9855;BME280;4966;48.112;9.282;2022-12-11T01:30:00;93931.41;;;-4.02;74.49
9855;BME280;4966;48.112;9.282;2022-12-11T01:32:26;93926.34;;;-4.30;75.23
9855;BME280;4966;48.112;9.282;2022-12-11T01:34:52;93930.03;;;-4.36;76.02
9855;BME280;4966;48.112;9.282;2022-12-11T01:37:17;93929.25;;;-4.36;74.42
9855;BME280;4966;48.112;9.282;2022-12-11T01:39:42;93935.63;;;-4.32;73.39
9855;BME280;4966;48.112;9.282;2022-12-11T01:42:14;93922.25;;;-4.78;75.21
9855;BME280;4966;48.112;9.282;2022-12-11T01:47:06;93932.44;;;-4.29;72.90
9855;BME280;4966;48.112;9.282;2022-12-11T01:49:32;93917.53;;;-4.45;71.16
9855;BME280;4966;48.112;9.282;2022-12-11T01:52:10;93925.22;;;-5.27;70.60
9855;BME280;4966;48.112;9.282;2022-12-11T01:54:40;93933.47;;;-5.29;71.77
9855;BME280;4966;48.112;9.282;2022-12-11T01:57:07;93920.53;;;-5.63;73.43
9855;BME280;4966;48.112;9.282;2022-12-11T01:59:36;93937.13;;;-5.35;73.41
9855;BME280;4966;48.112;9.282;2022-12-11T02:02:19;93938.28;;;-5.63;73.44
9855;BME280;4966;48.112;9.282;2022-12-11T02:04:45;93935.91;;;-5.65;73.42
9855;BME280;4966;48.112;9.282;2022-12-11T02:07:11;93937.22;;;-6.05;74.92
9855;BME280;4966;48.112;9.282;2022-12-11T02:09:38;93940.72;;;-5.94;73.90
9855;BME280;4966;48.112;9.282;2022-12-11T02:15:39;93952.34;;;-6.00;73.76
9855;BME280;4966;48.112;9.282;2022-12-11T02:17:52;93950.00;;;-5.91;73.83
9855;BME280;4966;48.112;9.282;2022-12-11T02:20:35;93956.09;;;-5.91;73.66
9855;BME280;4966;48.112;9.282;2022-12-11T02:28:23;93953.09;;;-6.05;72.39
9855;BME280;4966;48.112;9.282;2022-12-11T02:34:12;93953.75;;;-6.25;73.08
9855;BME280;4966;48.112;9.282;2022-12-11T02:36:43;93956.97;;;-6.17;72.75
9855;BME280;4966;48.112;9.282;2022-12-11T02:39:11;93956.88;;;-6.28;72.98
9855;BME280;4966;48.112;9.282;2022-12-11T02:41:42;93964.03;;;-6.55;73.69
9855;BME280;4966;48.112;9.282;2022-12-11T02:44:09;93961.94;;;-6.53;73.23
9855;BME280;4966;48.112;9.282;2022-12-11T02:46:36;93961.59;;;-6.30;72.05
9855;BME280;4966;48.112;9.282;2022-12-11T02:49:04;93956.88;;;-6.55;72.71
9855;BME280;4966;48.112;9.282;2022-12-11T02:51:36;93959.09;;;-6.96;73.72
9855;BME280;4966;48.112;9.282;2022-12-11T02:54:04;93961.47;;;-6.94;74.00
9855;BME280;4966;48.112;9.282;2022-12-11T02:56:33;93957.91;;;-6.83;73.15
9855;BME280;4966;48.112;9.282;2022-12-11T02:59:07;93960.44;;;-7.15;73.22
9855;BME280;4966;48.112;9.282;2022-12-11T03:01:33;93972.38;;;-7.13;72.56
9855;BME280;4966;48.112;9.282;2022-12-11T03:03:58;93976.03;;;-7.14;72.31
9855;BME280;4966;48.112;9.282;2022-12-11T03:06:28;93956.63;;;-7.24;72.96
9855;BME280;4966;48.112;9.282;2022-12-11T03:08:56;93959.94;;;-7.34;73.60
9855;BME280;4966;48.112;9.282;2022-12-11T03:11:21;93964.09;;;-7.38;73.41
9855;BME280;4966;48.112;9.282;2022-12-11T03:13:46;93967.97;;;-7.46;73.16
9855;BME280;4966;48.112;9.282;2022-12-11T03:16:34;93962.28;;;-7.55;74.52
9855;BME280;4966;48.112;9.282;2022-12-11T03:19:10;93966.06;;;-7.67;74.95
9855;BME280;4966;48.112;9.282;2022-12-11T03:21:44;93962.34;;;-7.50;74.66
9855;BME280;4966;48.112;9.282;2022-12-11T03:24:27;93962.97;;;-7.81;73.65
9855;BME280;4966;48.112;9.282;2022-12-11T03:26:58;93969.38;;;-7.77;73.69
9855;BME280;4966;48.112;9.282;2022-12-11T03:29:30;93972.81;;;-7.38;72.11
9855;BME280;4966;48.112;9.282;2022-12-11T03:32:09;93978.81;;;-7.42;71.35
9855;BME280;4966;48.112;9.282;2022-12-11T03:34:37;93971.34;;;-7.51;72.69
9855;BME280;4966;48.112;9.282;2022-12-11T03:37:06;93982.88;;;-7.74;74.24
9855;BME280;4966;48.112;9.282;2022-12-11T03:39:38;93979.22;;;-7.73;73.88
9855;BME280;4966;48.112;9.282;2022-12-11T03:42:07;93977.75;;;-7.63;74.67
9855;BME280;4966;48.112;9.282;2022-12-11T03:44:35;93973.22;;;-7.29;71.95
9855;BME280;4966;48.112;9.282;2022-12-11T03:47:03;93979.41;;;-7.57;71.39
9855;BME280;4966;48.112;9.282;2022-12-11T03:49:34;93979.81;;;-7.49;71.95
9855;BME280;4966;48.112;9.282;2022-12-11T03:52:01;93978.75;;;-7.47;72.20
9855;BME280;4966;48.112;9.282;2022-12-11T03:54:28;93976.13;;;-7.47;72.54
9855;BME280;4966;48.112;9.282;2022-12-11T03:56:56;93974.16;;;-7.35;72.97
9855;BME280;4966;48.112;9.282;2022-12-11T03:59:22;93981.81;;;-7.17;71.21
9855;BME280;4966;48.112;9.282;2022-12-11T04:01:48;93971.41;;;-7.45;71.33
9855;BME280;4966;48.112;9.282;2022-12-11T04:04:13;93966.03;;;-7.51;71.70
9855;BME280;4966;48.112;9.282;2022-12-11T04:06:38;93964.50;;;-7.08;71.47
9855;BME280;4966;48.112;9.282;2022-12-11T04:09:04;93971.47;;;-7.18;73.74
9855;BME280;4966;48.112;9.282;2022-12-11T04:11:29;93970.00;;;-6.87;73.06
9855;BME280;4966;48.112;9.282;2022-12-11T04:14:12;93969.69;;;-6.69;70.09
9855;BME280;4966;48.112;9.282;2022-12-11T04:16:59;93974.25;;;-6.64;71.49
9855;BME280;4966;48.112;9.282;2022-12-11T04:19:25;93968.28;;;-6.27;69.17
9855;BME280;4966;48.112;9.282;2022-12-11T04:22:13;93980.78;;;-6.45;69.40
9855;BME280;4966;48.112;9.282;2022-12-11T04:24:58;93982.28;;;-6.54;70.42
9855;BME280;4966;48.112;9.282;2022-12-11T04:27:24;93984.44;;;-6.51;71.74
9855;BME280;4966;48.112;9.282;2022-12-11T04:30:11;93983.91;;;-6.53;72.54
9855;BME280;4966;48.112;9.282;2022-12-11T04:32:38;93983.06;;;-6.31;72.48
9855;BME280;4966;48.112;9.282;2022-12-11T04:35:05;93986.09;;;-6.17;72.47
9855;BME280;4966;48.112;9.282;2022-12-11T04:37:31;93980.84;;;-6.12;73.33
9855;BME280;4966;48.112;9.282;2022-12-11T04:39:56;93986.75;;;-6.05;73.42
9855;BME280;4966;48.112;9.282;2022-12-11T04:42:22;93987.97;;;-5.81;73.63
9855;BME280;4966;48.112;9.282;2022-12-11T04:44:47;93974.59;;;-5.59;72.90
9855;BME280;4966;48.112;9.282;2022-12-11T04:47:12;93966.84;;;-5.70;72.89
9855;BME280;4966;48.112;9.282;2022-12-11T04:49:38;93973.31;;;-5.93;73.13
9855;BME280;4966;48.112;9.282;2022-12-11T04:52:03;93973.13;;;-5.44;71.84
9855;BME280;4966;48.112;9.282;2022-12-11T04:54:30;93976.50;;;-5.54;72.50
9855;BME280;4966;48.112;9.282;2022-12-11T04:56:55;93978.41;;;-5.44;73.20
9855;BME280;4966;48.112;9.282;2022-12-11T04:59:20;93969.06;;;-5.15;71.32
9855;BME280;4966;48.112;9.282;2022-12-11T05:01:46;93972.22;;;-5.13;71.69
9855;BME280;4966;48.112;9.282;2022-12-11T05:04:11;93962.31;;;-5.32;72.44
9855;BME280;4966;48.112;9.282;2022-12-11T05:06:37;93954.75;;;-5.14;72.06
9855;BME280;4966;48.112;9.282;2022-12-11T05:09:02;93957.09;;;-5.17;72.54
9855;BME280;4966;48.112;9.282;2022-12-11T05:11:28;93948.63;;;-5.19;73.65
9855;BME280;4966;48.112;9.282;2022-12-11T05:13:53;93951.91;;;-4.92;72.63
9855;BME280;4966;48.112;9.282;2022-12-11T05:16:18;93957.38;;;-5.14;73.14
9855;BME280;4966;48.112;9.282;2022-12-11T05:18:44;93960.56;;;-5.17;72.50
9855;BME280;4966;48.112;9.282;2022-12-11T05:21:11;93955.94;;;-5.37;72.93
9855;BME280;4966;48.112;9.282;2022-12-11T05:23:38;93947.69;;;-5.45;72.62
9855;BME280;4966;48.112;9.282;2022-12-11T05:26:06;93944.66;;;-5.64;72.56
9855;BME280;4966;48.112;9.282;2022-12-11T05:28:34;93943.69;;;-5.48;71.46
9855;BME280;4966;48.112;9.282;2022-12-11T05:31:03;93941.19;;;-5.65;71.80
9855;BME280;4966;48.112;9.282;2022-12-11T05:33:29;93956.81;;;-5.63;70.10
9855;BME280;4966;48.112;9.282;2022-12-11T05:35:55;93946.91;;;-6.15;70.95
9855;BME280;4966;48.112;9.282;2022-12-11T05:38:20;93954.66;;;-6.41;72.96
9855;BME280;4966;48.112;9.282;2022-12-11T05:41:04;93962.47;;;-6.24;71.52
9855;BME280;4966;48.112;9.282;2022-12-11T05:43:32;93949.41;;;-6.04;70.52
9855;BME280;4966;48.112;9.282;2022-12-11T05:46:09;93950.06;;;-6.73;71.87
9855;BME280;4966;48.112;9.282;2022-12-11T05:48:36;93951.66;;;-6.99;72.30
9855;BME280;4966;48.112;9.282;2022-12-11T05:51:01;93963.38;;;-7.34;73.17
9855;BME280;4966;48.112;9.282;2022-12-11T05:53:27;93959.53;;;-7.43;73.17
9855;BME280;4966;48.112;9.282;2022-12-11T05:55:53;93945.59;;;-7.38;73.52
9855;BME280;4966;48.112;9.282;2022-12-11T05:58:20;93951.28;;;-7.30;72.85
9855;BME280;4966;48.112;9.282;2022-12-11T06:00:46;93952.25;;;-7.36;72.42
9855;BME280;4966;48.112;9.282;2022-12-11T06:03:12;93949.41;;;-7.51;73.10
9855;BME280;4966;48.112;9.282;2022-12-11T06:05:41;93945.81;;;-7.62;73.88
9855;BME280;4966;48.112;9.282;2022-12-11T06:08:07;93942.41;;;-7.40;72.78
9855;BME280;4966;48.112;9.282;2022-12-11T06:10:32;93943.69;;;-7.43;73.15
9855;BME280;4966;48.112;9.282;2022-12-11T06:12:58;93950.94;;;-7.33;72.72
9855;BME280;4966;48.112;9.282;2022-12-11T06:15:23;93952.72;;;-7.61;72.43
9855;BME280;4966;48.112;9.282;2022-12-11T06:17:48;93961.94;;;-7.41;71.45
9855;BME280;4966;48.112;9.282;2022-12-11T06:20:14;93948.41;;;-7.45;70.61
9855;BME280;4966;48.112;9.282;2022-12-11T06:22:39;93947.28;;;-7.32;67.50
9855;BME280;4966;48.112;9.282;2022-12-11T06:25:05;93944.56;;;-7.76;69.51
9855;BME280;4966;48.112;9.282;2022-12-11T06:27:31;93945.53;;;-7.82;70.40
9855;BME280;4966;48.112;9.282;2022-12-11T06:29:56;93941.59;;;-7.63;68.31
9855;BME280;4966;48.112;9.282;2022-12-11T06:32:22;93948.19;;;-7.99;69.16
9855;BME280;4966;48.112;9.282;2022-12-11T06:34:47;93947.22;;;-7.93;69.61
9855;BME280;4966;48.112;9.282;2022-12-11T06:37:12;93946.00;;;-7.85;67.32
9855;BME280;4966;48.112;9.282;2022-12-11T06:39:38;93940.69;;;-8.41;68.80
9855;BME280;4966;48.112;9.282;2022-12-11T06:42:03;93931.94;;;-8.59;68.69
9855;BME280;4966;48.112;9.282;2022-12-11T06:44:29;93938.25;;;-8.88;70.93
9855;BME280;4966;48.112;9.282;2022-12-11T06:46:54;93942.06;;;-8.67;70.44
9855;BME280;4966;48.112;9.282;2022-12-11T06:49:19;93939.06;;;-8.59;71.13
9855;BME280;4966;48.112;9.282;2022-12-11T06:51:45;93932.69;;;-8.92;72.13
9855;BME280;4966;48.112;9.282;2022-12-11T06:54:11;93941.50;;;-8.69;72.13
9855;BME280;4966;48.112;9.282;2022-12-11T06:56:36;93938.72;;;-8.63;71.66
9855;BME280;4966;48.112;9.282;2022-12-11T06:59:02;93944.47;;;-8.66;71.73
9855;BME280;4966;48.112;9.282;2022-12-11T07:01:27;93940.38;;;-8.45;69.76
9855;BME280;4966;48.112;9.282;2022-12-11T07:03:57;93935.53;;;-8.48;68.98
9855;BME280;4966;48.112;9.282;2022-12-11T07:06:23;93944.72;;;-8.67;69.41
9855;BME280;4966;48.112;9.282;2022-12-11T07:08:49;93953.03;;;-8.59;68.08
9855;BME280;4966;48.112;9.282;2022-12-11T07:11:16;93944.84;;;-9.03;68.91
9855;BME280;4966;48.112;9.282;2022-12-11T07:13:43;93948.94;;;-9.24;70.19
9855;BME280;4966;48.112;9.282;2022-12-11T07:16:09;93961.03;;;-9.11;69.88
9855;BME280;4966;48.112;9.282;2022-12-11T07:18:36;93948.97;;;-8.95;71.15
9855;BME280;4966;48.112;9.282;2022-12-11T07:21:03;93954.97;;;-9.11;71.22
9855;BME280;4966;48.112;9.282;2022-12-11T07:23:28;93959.38;;;-9.29;72.18
9855;BME280;4966;48.112;9.282;2022-12-11T07:25:55;93955.75;;;-9.11;72.72
9855;BME280;4966;48.112;9.282;2022-12-11T07:28:20;93952.06;;;-8.98;71.76
9855;BME280;4966;48.112;9.282;2022-12-11T07:30:47;93947.03;;;-8.71;71.15
9855;BME280;4966;48.112;9.282;2022-12-11T07:33:12;93942.78;;;-8.72;69.49
9855;BME280;4966;48.112;9.282;2022-12-11T07:35:38;93941.72;;;-8.42;65.49
9855;BME280;4966;48.112;9.282;2022-12-11T07:38:03;93953.38;;;-8.84;67.20
9855;BME280;4966;48.112;9.282;2022-12-11T07:40:28;93945.75;;;-8.68;67.71
9855;BME280;4966;48.112;9.282;2022-12-11T07:42:54;93952.06;;;-8.98;68.78
9855;BME280;4966;48.112;9.282;2022-12-11T07:45:19;93951.06;;;-9.09;70.66
9855;BME280;4966;48.112;9.282;2022-12-11T07:47:45;93945.09;;;-8.75;70.35
9855;BME280;4966;48.112;9.282;2022-12-11T07:50:10;93946.00;;;-8.53;70.91
9855;BME280;4966;48.112;9.282;2022-12-11T07:52:35;93943.84;;;-8.22;69.42
9855;BME280;4966;48.112;9.282;2022-12-11T07:55:01;93939.63;;;-8.06;66.58
9855;BME280;4966;48.112;9.282;2022-12-11T07:57:27;93947.69;;;-7.96;66.94
9855;BME280;4966;48.112;9.282;2022-12-11T07:59:52;93942.84;;;-8.04;67.68
9855;BME280;4966;48.112;9.282;2022-12-11T08:02:18;93949.63;;;-7.92;67.90
9855;BME280;4966;48.112;9.282;2022-12-11T08:04:43;93942.81;;;-7.71;66.88
9855;BME280;4966;48.112;9.282;2022-12-11T08:07:09;93952.97;;;-7.40;64.86
9855;BME280;4966;48.112;9.282;2022-12-11T08:09:34;93951.28;;;-7.30;65.10
9855;BME280;4966;48.112;9.282;2022-12-11T08:11:59;93937.13;;;-6.96;64.51
9855;BME280;4966;48.112;9.282;2022-12-11T08:14:25;93950.78;;;-7.04;64.79
9855;BME280;4966;48.112;9.282;2022-12-11T08:16:50;93952.59;;;-6.83;64.34
9855;BME280;4966;48.112;9.282;2022-12-11T08:19:16;93948.81;;;-6.70;64.42
9855;BME280;4966;48.112;9.282;2022-12-11T08:21:42;93936.69;;;-6.61;64.96
9855;BME280;4966;48.112;9.282;2022-12-11T08:24:09;93952.38;;;-6.81;65.51
9855;BME280;4966;48.112;9.282;2022-12-11T08:26:34;93943.84;;;-6.61;64.82
9855;BME280;4966;48.112;9.282;2022-12-11T08:29:00;93942.88;;;-6.55;64.86
9855;BME280;4966;48.112;9.282;2022-12-11T08:31:26;93939.31;;;-6.39;65.42
9855;BME280;4966;48.112;9.282;2022-12-11T08:33:54;93936.56;;;-6.22;65.16
9855;BME280;4966;48.112;9.282;2022-12-11T08:36:20;93935.88;;;-6.07;65.62
9855;BME280;4966;48.112;9.282;2022-12-11T08:38:46;93932.28;;;-5.91;64.35
9855;BME280;4966;48.112;9.282;2022-12-11T08:41:14;93939.69;;;-5.88;64.14
9855;BME280;4966;48.112;9.282;2022-12-11T08:43:40;93933.16;;;-5.75;64.61
9855;BME280;4966;48.112;9.282;2022-12-11T08:46:06;93932.97;;;-5.63;65.10
9855;BME280;4966;48.112;9.282;2022-12-11T08:48:35;93925.41;;;-5.44;64.94
9855;BME280;4966;48.112;9.282;2022-12-11T08:51:02;93924.19;;;-5.26;65.04
9855;BME280;4966;48.112;9.282;2022-12-11T08:53:30;93931.66;;;-5.18;65.10
9855;BME280;4966;48.112;9.282;2022-12-11T08:56:03;93934.34;;;-5.08;65.52
9855;BME280;4966;48.112;9.282;2022-12-11T08:58:28;93935.66;;;-5.05;65.94
9855;BME280;4966;48.112;9.282;2022-12-11T09:00:54;93924.84;;;-4.88;65.55
9855;BME280;4966;48.112;9.282;2022-12-11T09:03:20;93923.31;;;-4.79;65.02
9855;BME280;4966;48.112;9.282;2022-12-11T09:05:45;93928.13;;;-4.66;65.56
9855;BME280;4966;48.112;9.282;2022-12-11T09:08:10;93928.69;;;-4.43;65.12
9855;BME280;4966;48.112;9.282;2022-12-11T09:10:36;93928.47;;;-4.32;64.10
9855;BME280;4966;48.112;9.282;2022-12-11T09:13:01;93933.78;;;-4.21;64.37
9855;BME280;4966;48.112;9.282;2022-12-11T09:15:26;93927.66;;;-4.27;64.08
9855;BME280;4966;48.112;9.282;2022-12-11T09:17:52;93922.06;;;-4.36;64.02
9855;BME280;4966;48.112;9.282;2022-12-11T09:20:17;93924.47;;;-4.50;65.04
9855;BME280;4966;48.112;9.282;2022-12-11T09:22:42;93924.75;;;-4.31;64.98
9855;BME280;4966;48.112;9.282;2022-12-11T09:25:08;93921.31;;;-4.11;65.36
9855;BME280;4966;48.112;9.282;2022-12-11T09:27:33;93923.97;;;-4.00;65.33
9855;BME280;4966;48.112;9.282;2022-12-11T09:29:59;93924.22;;;-4.07;65.01
9855;BME280;4966;48.112;9.282;2022-12-11T09:32:25;93933.53;;;-4.15;66.34
9855;BME280;4966;48.112;9.282;2022-12-11T09:34:50;93921.59;;;-3.92;65.78
9855;BME280;4966;48.112;9.282;2022-12-11T09:37:17;93926.09;;;-3.72;65.99
9855;BME280;4966;48.112;9.282;2022-12-11T09:39:43;93921.31;;;-3.65;65.50
9855;BME280;4966;48.112;9.282;2022-12-11T09:42:57;93926.31;;;-3.43;65.77
9855;BME280;4966;48.112;9.282;2022-12-11T09:45:03;93921.22;;;-3.24;65.85
9855;BME280;4966;48.112;9.282;2022-12-11T09:47:37;93924.91;;;-3.14;65.82
9855;BME280;4966;48.112;9.282;2022-12-11T09:55:35;93929.63;;;-2.91;66.10
9855;BME280;4966;48.112;9.282;2022-12-11T09:58:27;93913.34;;;-2.79;65.76
9855;BME280;4966;48.112;9.282;2022-12-11T10:06:40;93894.03;;;-2.50;66.05
9855;BME280;4966;48.112;9.282;2022-12-11T10:11:58;93890.91;;;-2.18;66.31
9855;BME280;4966;48.112;9.282;2022-12-11T10:14:58;93885.94;;;-1.96;64.67
9855;BME280;4966;48.112;9.282;2022-12-11T10:17:32;93878.06;;;-1.77;64.77
9855;BME280;4966;48.112;9.282;2022-12-11T10:20:25;93878.81;;;-1.71;64.86
9855;BME280;4966;48.112;9.282;2022-12-11T10:22:53;93874.50;;;-1.67;64.78
9855;BME280;4966;48.112;9.282;2022-12-11T10:25:23;93867.34;;;-1.72;65.00
9855;BME280;4966;48.112;9.282;2022-12-11T10:27:50;93866.19;;;-1.60;64.96
9855;BME280;4966;48.112;9.282;2022-12-11T10:30:32;93875.34;;;-1.42;64.97
9855;BME280;4966;48.112;9.282;2022-12-11T10:33:21;93868.81;;;-1.31;65.50
9855;BME280;4966;48.112;9.282;2022-12-11T10:35:52;93871.03;;;-1.38;65.53
9855;BME280;4966;48.112;9.282;2022-12-11T10:38:31;93871.16;;;-1.24;66.09
9855;BME280;4966;48.112;9.282;2022-12-11T10:41:03;93861.84;;;-1.56;67.72
9855;BME280;4966;48.112;9.282;2022-12-11T10:43:37;93856.44;;;-1.22;66.57
9855;BME280;4966;48.112;9.282;2022-12-11T10:46:05;93857.56;;;-1.04;66.13
9855;BME280;4966;48.112;9.282;2022-12-11T10:48:31;93847.69;;;-1.03;65.98
9855;BME280;4966;48.112;9.282;2022-12-11T10:51:04;93848.44;;;-1.22;66.27
9855;BME280;4966;48.112;9.282;2022-12-11T10:53:32;93853.91;;;-0.89;65.59
9855;BME280;4966;48.112;9.282;2022-12-11T10:55:58;93845.06;;;-0.66;64.85
9855;BME280;4966;48.112;9.282;2022-12-11T10:58:27;93836.28;;;-0.47;64.06
9855;BME280;4966;48.112;9.282;2022-12-11T11:03:27;93832.06;;;-0.34;65.29
9855;BME280;4966;48.112;9.282;2022-12-11T11:06:14;93834.63;;;-0.43;65.56
9855;BME280;4966;48.112;9.282;2022-12-11T11:08:46;93830.13;;;-0.48;65.52
9855;BME280;4966;48.112;9.282;2022-12-11T11:11:35;93825.63;;;-0.14;64.74
9855;BME280;4966;48.112;9.282;2022-12-11T11:14:21;93827.50;;;-0.15;64.08
9855;BME280;4966;48.112;9.282;2022-12-11T11:16:51;93830.91;;;-0.09;64.50
9855;BME280;4966;48.112;9.282;2022-12-11T11:19:23;93828.56;;;0.03;64.42
9855;BME280;4966;48.112;9.282;2022-12-11T11:21:51;93815.44;;;0.20;64.27
9855;BME280;4966;48.112;9.282;2022-12-11T11:24:40;93816.63;;;0.28;64.21
9855;BME280;4966;48.112;9.282;2022-12-11T11:29:44;93810.91;;;0.02;65.45
9855;BME280;4966;48.112;9.282;2022-12-11T11:32:22;93809.84;;;0.03;65.91
9855;BME280;4966;48.112;9.282;2022-12-11T11:34:48;93807.13;;;0.36;64.88
9855;BME280;4966;48.112;9.282;2022-12-11T11:37:32;93797.94;;;0.42;64.80
9855;BME280;4966;48.112;9.282;2022-12-11T11:42:55;93798.94;;;0.46;65.42
9855;BME280;4966;48.112;9.282;2022-12-11T11:45:26;93789.56;;;0.16;66.38
9855;BME280;4966;48.112;9.282;2022-12-11T11:48:09;93795.00;;;0.11;66.38
9855;BME280;4966;48.112;9.282;2022-12-11T11:50:39;93794.06;;;0.76;64.43
9855;BME280;4966;48.112;9.282;2022-12-11T11:53:12;93785.16;;;0.39;66.29
9855;BME280;4966;48.112;9.282;2022-12-11T11:55:48;93793.66;;;0.55;65.63
9855;BME280;4966;48.112;9.282;2022-12-11T11:58:19;93784.56;;;0.70;65.19
9855;BME280;4966;48.112;9.282;2022-12-11T12:00:54;93770.44;;;1.78;64.05
9855;BME280;4966;48.112;9.282;2022-12-11T12:03:22;93773.47;;;2.39;61.54
9855;BME280;4966;48.112;9.282;2022-12-11T12:06:01;93767.47;;;2.73;59.49
9855;BME280;4966;48.112;9.282;2022-12-11T12:11:48;93766.03;;;2.05;60.92
9855;BME280;4966;48.112;9.282;2022-12-11T12:17:04;93763.84;;;2.07;62.53
9855;BME280;4966;48.112;9.282;2022-12-11T12:19:49;93767.88;;;1.96;61.86
9855;BME280;4966;48.112;9.282;2022-12-11T12:22:31;93765.69;;;2.29;60.58
9855;BME280;4966;48.112;9.282;2022-12-11T12:27:49;93760.13;;;1.72;62.72
9855;BME280;4966;48.112;9.282;2022-12-11T12:30:18;93759.25;;;2.07;60.72
9855;BME280;4966;48.112;9.282;2022-12-11T12:32:52;93756.28;;;2.09;60.84
9855;BME280;4966;48.112;9.282;2022-12-11T12:35:36;93763.47;;;1.55;62.13
9855;BME280;4966;48.112;9.282;2022-12-11T12:38:22;93757.97;;;1.37;62.20
9855;BME280;4966;48.112;9.282;2022-12-11T12:43:59;93760.22;;;1.08;63.28
9855;BME280;4966;48.112;9.282;2022-12-11T12:46:45;93777.41;;;0.93;63.40
9855;BME280;4966;48.112;9.282;2022-12-11T12:49:27;93767.47;;;1.07;63.36
9855;BME280;4966;48.112;9.282;2022-12-11T12:51:55;93763.72;;;1.44;62.91
9855;BME280;4966;48.112;9.282;2022-12-11T12:54:22;93770.38;;;1.33;63.28
9855;BME280;4966;48.112;9.282;2022-12-11T12:56:51;93764.34;;;1.86;61.94
9855;BME280;4966;48.112;9.282;2022-12-11T12:59:18;93764.16;;;1.83;61.56
9855;BME280;4966;48.112;9.282;2022-12-11T13:01:46;93758.94;;;1.05;63.00
9855;BME280;4966;48.112;9.282;2022-12-11T13:04:36;93765.88;;;1.56;62.67
9855;BME280;4966;48.112;9.282;2022-12-11T13:07:24;93756.28;;;1.86;61.21
9855;BME280;4966;48.112;9.282;2022-12-11T13:12:43;93754.81;;;1.58;63.00
9855;BME280;4966;48.112;9.282;2022-12-11T13:15:38;93761.78;;;2.04;62.04
9855;BME280;4966;48.112;9.282;2022-12-11T13:18:33;93760.13;;;1.72;62.21
9855;BME280;4966;48.112;9.282;2022-12-11T13:20:59;93750.66;;;1.65;62.28
9855;BME280;4966;48.112;9.282;2022-12-11T13:23:28;93753.97;;;1.48;62.92
9855;BME280;4966;48.112;9.282;2022-12-11T13:25:59;93754.19;;;1.38;62.79
9855;BME280;4966;48.112;9.282;2022-12-11T13:33:46;93751.50;;;1.16;63.69
9855;BME280;4966;48.112;9.282;2022-12-11T13:38:45;93751.72;;;1.05;63.88
9855;BME280;4966;48.112;9.282;2022-12-11T13:41:11;93751.50;;;1.38;63.67
9855;BME280;4966;48.112;9.282;2022-12-11T13:43:40;93753.50;;;1.46;63.43
9855;BME280;4966;48.112;9.282;2022-12-11T13:46:11;93754.22;;;1.61;63.32
9855;BME280;4966;48.112;9.282;2022-12-11T13:48:45;93756.78;;;1.66;63.03
9855;BME280;4966;48.112;9.282;2022-12-11T13:51:16;93758.06;;;1.68;63.30
9855;BME280;4966;48.112;9.282;2022-12-11T13:53:43;93767.22;;;1.90;62.96
9855;BME280;4966;48.112;9.282;2022-12-11T13:56:19;93761.88;;;2.21;61.91
9855;BME280;4966;48.112;9.282;2022-12-11T13:58:45;93770.22;;;2.51;61.28
9855;BME280;4966;48.112;9.282;2022-12-11T14:01:15;93755.75;;;2.69;61.03
9855;BME280;4966;48.112;9.282;2022-12-11T14:03:55;93759.28;;;2.79;60.19
9855;BME280;4966;48.112;9.282;2022-12-11T14:06:21;93758.97;;;2.89;60.32
9855;BME280;4966;48.112;9.282;2022-12-11T14:08:50;93754.63;;;3.19;58.40
9855;BME280;4966;48.112;9.282;2022-12-11T14:11:23;93755.34;;;2.93;58.23
9855;BME280;4966;48.112;9.282;2022-12-11T14:13:53;93752.81;;;2.40;57.95
9855;BME280;4966;48.112;9.282;2022-12-11T14:16:21;93762.19;;;1.75;60.33
9855;BME280;4966;48.112;9.282;2022-12-11T14:18:49;93755.69;;;1.67;62.57
9855;BME280;4966;48.112;9.282;2022-12-11T14:21:20;93765.28;;;1.45;62.00
9855;BME280;4966;48.112;9.282;2022-12-11T14:23:54;93769.13;;;1.17;63.05
9855;BME280;4966;48.112;9.282;2022-12-11T14:28:49;93767.47;;;1.43;63.39
9855;BME280;4966;48.112;9.282;2022-12-11T14:31:20;93769.00;;;1.36;64.28
9855;BME280;4966;48.112;9.282;2022-12-11T14:33:57;93772.56;;;1.31;64.96
9855;BME280;4966;48.112;9.282;2022-12-11T14:36:25;93774.97;;;1.33;63.32
9855;BME280;4966;48.112;9.282;2022-12-11T14:39:11;93778.50;;;0.92;64.46